sensor_id;sensor_type;location;lat;lon;timestamp;P1;durP1;ratioP1;P2;durP2;ratioP2
7971;SDS011;4031;49.758;6.120;2023-04-01T00:00:55;1.87;;;0.83;;
7971;SDS011;4031;49.758;6.120;2023-04-01T00:03:23;1.23;;;0.87;;
7971;SDS011;4031;49.758;6.120;2023-04-01T00:05:50;1.37;;;1.10;;
7971;SDS011;4031;49.758;6.120;2023-04-01T00:08:16;1.70;;;0.80;;
7971;SDS011;4031;49.758;6.120;2023-04-01T00:10:43;3.23;;;0.80;;
7971;SDS011;4031;49.758;6.120;2023-04-01T00:13:09;1.63;;;0.53;;
7971;SDS011;4031;49.758;6.120;2023-04-01T00:15:35;1.30;;;0.70;;
7971;SDS011;4031;49.758;6.120;2023-04-01T00:18:01;1.90;;;0.60;;
7971;SDS011;4031;49.758;6.120;2023-04-01T00:20:27;3.20;;;0.80;;
7971;SDS011;4031;49.758;6.120;2023-04-01T00:22:53;1.63;;;0.63;;
7971;SDS011;4031;49.758;6.120;2023-04-01T00:25:20;2.50;;;1.30;;
7971;SDS011;4031;49.758;6.120;2023-04-01T00:27:46;1.10;;;0.80;;
7971;SDS011;4031;49.758;6.120;2023-04-01T00:30:11;3.83;;;1.10;;
7971;SDS011;4031;49.758;6.120;2023-04-01T00:32:37;3.90;;;0.80;;
7971;SDS011;4031;49.758;6.120;2023-04-01T00:35:03;2.97;;;0.90;;
7971;SDS011;4031;49.758;6.120;2023-04-01T00:37:30;2.57;;;0.73;;
7971;SDS011;4031;49.758;6.120;2023-04-01T00:39:56;0.83;;;0.73;;
7971;SDS011;4031;49.758;6.120;2023-04-01T00:42:22;5.93;;;0.90;;
7971;SDS011;4031;49.758;6.120;2023-04-01T00:44:50;1.60;;;1.50;;
7971;SDS011;4031;49.758;6.120;2023-04-01T00:47:17;4.13;;;0.90;;
7971;SDS011;4031;49.758;6.120;2023-04-01T00:49:44;5.43;;;0.97;;
7971;SDS011;4031;49.758;6.120;2023-04-01T00:52:15;2.70;;;0.73;;
7971;SDS011;4031;49.758;6.120;2023-04-01T00:54:47;1.17;;;1.00;;
7971;SDS011;4031;49.758;6.120;2023-04-01T00:57:29;1.70;;;0.80;;
7971;SDS011;4031;49.758;6.120;2023-04-01T01:00:03;2.40;;;0.70;;
7971;SDS011;4031;49.758;6.120;2023-04-01T01:02:32;1.13;;;0.67;;
7971;SDS011;4031;49.758;6.120;2023-04-01T01:04:59;1.03;;;0.73;;
7971;SDS011;4031;49.758;6.120;2023-04-01T01:10:23;3.60;;;0.70;;
7971;SDS011;4031;49.758;6.120;2023-04-01T01:15:47;1.50;;;0.80;;
7971;SDS011;4031;49.758;6.120;2023-04-01T01:29:35;1.67;;;1.33;;
7971;SDS011;4031;49.758;6.120;2023-04-01T01:32:42;1.90;;;0.90;;
7971;SDS011;4031;49.758;6.120;2023-04-01T01:35:58;1.17;;;0.70;;
7971;SDS011;4031;49.758;6.120;2023-04-01T01:38:28;1.10;;;0.73;;
7971;SDS011;4031;49.758;6.120;2023-04-01T01:40:57;2.70;;;0.90;;
7971;SDS011;4031;49.758;6.120;2023-04-01T01:43:26;2.27;;;0.73;;
7971;SDS011;4031;49.758;6.120;2023-04-01T01:46:07;0.80;;;0.70;;
7971;SDS011;4031;49.758;6.120;2023-04-01T01:48:37;2.27;;;1.07;;
7971;SDS011;4031;49.758;6.120;2023-04-01T01:51:06;0.80;;;0.80;;
7971;SDS011;4031;49.758;6.120;2023-04-01T01:53:32;3.83;;;1.20;;
7971;SDS011;4031;49.758;6.120;2023-04-01T01:55:58;0.60;;;0.53;;
7971;SDS011;4031;49.758;6.120;2023-04-01T01:58:30;2.90;;;0.70;;
7971;SDS011;4031;49.758;6.120;2023-04-01T02:01:10;4.63;;;1.00;;
7971;SDS011;4031;49.758;6.120;2023-04-01T02:03:41;4.20;;;0.70;;
7971;SDS011;4031;49.758;6.120;2023-04-01T02:06:10;1.73;;;0.90;;
7971;SDS011;4031;49.758;6.120;2023-04-01T02:08:48;1.17;;;0.60;;
7971;SDS011;4031;49.758;6.120;2023-04-01T02:11:22;2.17;;;0.70;;
7971;SDS011;4031;49.758;6.120;2023-04-01T02:13:55;2.30;;;0.70;;
7971;SDS011;4031;49.758;6.120;2023-04-01T02:16:32;1.13;;;0.50;;
7971;SDS011;4031;49.758;6.120;2023-04-01T02:19:11;2.03;;;1.03;;
7971;SDS011;4031;49.758;6.120;2023-04-01T02:21:39;3.80;;;0.50;;
7971;SDS011;4031;49.758;6.120;2023-04-01T02:24:08;1.63;;;0.73;;
7971;SDS011;4031;49.758;6.120;2023-04-01T02:26:37;2.40;;;0.57;;
7971;SDS011;4031;49.758;6.120;2023-04-01T02:29:06;1.00;;;0.70;;
7971;SDS011;4031;49.758;6.120;2023-04-01T02:31:34;0.80;;;0.50;;
7971;SDS011;4031;49.758;6.120;2023-04-01T02:34:01;2.80;;;0.80;;
7971;SDS011;4031;49.758;6.120;2023-04-01T02:36:28;1.30;;;0.47;;
7971;SDS011;4031;49.758;6.120;2023-04-01T02:38:54;0.83;;;0.60;;
7971;SDS011;4031;49.758;6.120;2023-04-01T02:41:27;1.27;;;0.60;;
7971;SDS011;4031;49.758;6.120;2023-04-01T02:43:53;1.30;;;0.70;;
7971;SDS011;4031;49.758;6.120;2023-04-01T02:46:19;1.73;;;0.70;;
7971;SDS011;4031;49.758;6.120;2023-04-01T02:48:45;1.33;;;1.10;;
7971;SDS011;4031;49.758;6.120;2023-04-01T02:51:11;1.17;;;0.70;;
7971;SDS011;4031;49.758;6.120;2023-04-01T02:53:37;1.23;;;0.60;;
7971;SDS011;4031;49.758;6.120;2023-04-01T02:56:02;2.10;;;0.80;;
7971;SDS011;4031;49.758;6.120;2023-04-01T02:58:28;2.03;;;0.70;;
7971;SDS011;4031;49.758;6.120;2023-04-01T03:00:54;2.10;;;0.70;;
7971;SDS011;4031;49.758;6.120;2023-04-01T03:03:20;3.87;;;0.97;;
7971;SDS011;4031;49.758;6.120;2023-04-01T03:05:46;0.50;;;0.50;;
7971;SDS011;4031;49.758;6.120;2023-04-01T03:08:11;0.50;;;0.50;;
7971;SDS011;4031;49.758;6.120;2023-04-01T03:10:37;0.90;;;0.50;;
7971;SDS011;4031;49.758;6.120;2023-04-01T03:13:03;3.90;;;1.03;;
7971;SDS011;4031;49.758;6.120;2023-04-01T03:15:29;1.03;;;0.83;;
7971;SDS011;4031;49.758;6.120;2023-04-01T03:17:54;1.60;;;0.50;;
7971;SDS011;4031;49.758;6.120;2023-04-01T03:20:20;2.10;;;0.53;;
7971;SDS011;4031;49.758;6.120;2023-04-01T03:22:46;0.50;;;0.40;;
7971;SDS011;4031;49.758;6.120;2023-04-01T03:25:12;2.50;;;0.80;;
7971;SDS011;4031;49.758;6.120;2023-04-01T03:27:37;1.23;;;0.40;;
7971;SDS011;4031;49.758;6.120;2023-04-01T03:30:03;2.97;;;0.70;;
7971;SDS011;4031;49.758;6.120;2023-04-01T03:32:31;1.23;;;0.70;;
7971;SDS011;4031;49.758;6.120;2023-04-01T03:34:57;1.20;;;0.57;;
7971;SDS011;4031;49.758;6.120;2023-04-01T03:37:23;0.90;;;0.40;;
7971;SDS011;4031;49.758;6.120;2023-04-01T03:39:49;1.03;;;0.40;;
7971;SDS011;4031;49.758;6.120;2023-04-01T03:42:15;0.70;;;0.70;;
7971;SDS011;4031;49.758;6.120;2023-04-01T03:44:41;0.80;;;0.60;;
7971;SDS011;4031;49.758;6.120;2023-04-01T03:47:06;0.63;;;0.60;;
7971;SDS011;4031;49.758;6.120;2023-04-01T03:49:34;0.77;;;0.67;;
7971;SDS011;4031;49.758;6.120;2023-04-01T03:52:00;3.60;;;0.60;;
7971;SDS011;4031;49.758;6.120;2023-04-01T03:54:25;2.43;;;0.63;;
7971;SDS011;4031;49.758;6.120;2023-04-01T03:56:51;0.50;;;0.30;;
7971;SDS011;4031;49.758;6.120;2023-04-01T03:59:17;0.40;;;0.30;;
7971;SDS011;4031;49.758;6.120;2023-04-01T04:01:43;0.70;;;0.53;;
7971;SDS011;4031;49.758;6.120;2023-04-01T04:04:10;2.47;;;0.70;;
7971;SDS011;4031;49.758;6.120;2023-04-01T04:06:38;2.30;;;0.70;;
7971;SDS011;4031;49.758;6.120;2023-04-01T04:09:03;1.67;;;0.50;;
7971;SDS011;4031;49.758;6.120;2023-04-01T04:11:30;0.97;;;0.73;;
7971;SDS011;4031;49.758;6.120;2023-04-01T04:13:57;1.43;;;0.50;;
7971;SDS011;4031;49.758;6.120;2023-04-01T04:16:23;0.60;;;0.50;;
7971;SDS011;4031;49.758;6.120;2023-04-01T04:18:49;1.73;;;0.60;;
7971;SDS011;4031;49.758;6.120;2023-04-01T04:21:16;1.50;;;0.40;;
7971;SDS011;4031;49.758;6.120;2023-04-01T04:23:42;1.23;;;0.50;;
7971;SDS011;4031;49.758;6.120;2023-04-01T04:26:09;3.60;;;0.50;;
7971;SDS011;4031;49.758;6.120;2023-04-01T04:28:39;0.50;;;0.37;;
7971;SDS011;4031;49.758;6.120;2023-04-01T04:31:05;1.73;;;0.60;;
7971;SDS011;4031;49.758;6.120;2023-04-01T04:33:32;0.40;;;0.30;;
7971;SDS011;4031;49.758;6.120;2023-04-01T04:35:59;0.80;;;0.70;;
7971;SDS011;4031;49.758;6.120;2023-04-01T04:38:25;0.60;;;0.50;;
7971;SDS011;4031;49.758;6.120;2023-04-01T04:40:51;1.13;;;0.40;;
7971;SDS011;4031;49.758;6.120;2023-04-01T04:43:17;2.53;;;0.50;;
7971;SDS011;4031;49.758;6.120;2023-04-01T04:45:44;1.57;;;0.43;;
7971;SDS011;4031;49.758;6.120;2023-04-01T04:48:11;1.13;;;0.40;;
7971;SDS011;4031;49.758;6.120;2023-04-01T04:50:43;1.43;;;0.37;;
7971;SDS011;4031;49.758;6.120;2023-04-01T04:53:14;0.40;;;0.30;;
7971;SDS011;4031;49.758;6.120;2023-04-01T04:55:45;0.60;;;0.40;;
7971;SDS011;4031;49.758;6.120;2023-04-01T04:58:15;0.50;;;0.40;;
7971;SDS011;4031;49.758;6.120;2023-04-01T05:00:42;0.50;;;0.40;;
7971;SDS011;4031;49.758;6.120;2023-04-01T05:03:08;0.70;;;0.50;;
7971;SDS011;4031;49.758;6.120;2023-04-01T05:05:35;0.60;;;0.47;;
7971;SDS011;4031;49.758;6.120;2023-04-01T05:08:01;0.70;;;0.40;;
7971;SDS011;4031;49.758;6.120;2023-04-01T05:10:27;1.10;;;0.43;;
7971;SDS011;4031;49.758;6.120;2023-04-01T05:12:52;0.80;;;0.50;;
7971;SDS011;4031;49.758;6.120;2023-04-01T05:15:18;0.60;;;0.50;;
7971;SDS011;4031;49.758;6.120;2023-04-01T05:17:44;1.53;;;0.80;;
7971;SDS011;4031;49.758;6.120;2023-04-01T05:20:11;0.50;;;0.40;;
7971;SDS011;4031;49.758;6.120;2023-04-01T05:22:38;2.20;;;0.50;;
7971;SDS011;4031;49.758;6.120;2023-04-01T05:25:04;0.60;;;0.30;;
7971;SDS011;4031;49.758;6.120;2023-04-01T05:27:30;0.53;;;0.40;;
7971;SDS011;4031;49.758;6.120;2023-04-01T05:29:56;1.23;;;0.30;;
7971;SDS011;4031;49.758;6.120;2023-04-01T05:32:22;0.50;;;0.40;;
7971;SDS011;4031;49.758;6.120;2023-04-01T05:34:51;0.80;;;0.80;;
7971;SDS011;4031;49.758;6.120;2023-04-01T05:37:18;0.40;;;0.40;;
7971;SDS011;4031;49.758;6.120;2023-04-01T05:39:44;0.50;;;0.40;;
7971;SDS011;4031;49.758;6.120;2023-04-01T05:42:10;0.70;;;0.40;;
7971;SDS011;4031;49.758;6.120;2023-04-01T05:44:35;3.43;;;0.50;;
7971;SDS011;4031;49.758;6.120;2023-04-01T05:47:02;0.73;;;0.40;;
7971;SDS011;4031;49.758;6.120;2023-04-01T05:49:29;1.10;;;0.50;;
7971;SDS011;4031;49.758;6.120;2023-04-01T05:51:56;0.40;;;0.40;;
7971;SDS011;4031;49.758;6.120;2023-04-01T05:54:22;0.50;;;0.40;;
7971;SDS011;4031;49.758;6.120;2023-04-01T05:56:48;0.60;;;0.50;;
7971;SDS011;4031;49.758;6.120;2023-04-01T05:59:13;0.63;;;0.43;;
7971;SDS011;4031;49.758;6.120;2023-04-01T06:01:39;0.70;;;0.50;;
7971;SDS011;4031;49.758;6.120;2023-04-01T06:04:05;0.73;;;0.57;;
7971;SDS011;4031;49.758;6.120;2023-04-01T06:06:31;0.60;;;0.50;;
7971;SDS011;4031;49.758;6.120;2023-04-01T06:08:58;1.23;;;0.40;;
7971;SDS011;4031;49.758;6.120;2023-04-01T06:14:29;1.53;;;0.30;;
7971;SDS011;4031;49.758;6.120;2023-04-01T06:17:26;0.60;;;0.30;;
7971;SDS011;4031;49.758;6.120;2023-04-01T06:23:39;1.17;;;0.40;;
7971;SDS011;4031;49.758;6.120;2023-04-01T06:29:14;0.40;;;0.30;;
7971;SDS011;4031;49.758;6.120;2023-04-01T06:32:15;0.60;;;0.40;;
7971;SDS011;4031;49.758;6.120;2023-04-01T06:34:54;1.27;;;0.50;;
7971;SDS011;4031;49.758;6.120;2023-04-01T06:38:19;2.30;;;0.40;;
7971;SDS011;4031;49.758;6.120;2023-04-01T06:41:01;1.93;;;0.50;;
7971;SDS011;4031;49.758;6.120;2023-04-01T06:46:57;0.40;;;0.40;;
7971;SDS011;4031;49.758;6.120;2023-04-01T06:55:02;1.90;;;0.50;;
7971;SDS011;4031;49.758;6.120;2023-04-01T06:57:47;0.70;;;0.40;;
7971;SDS011;4031;49.758;6.120;2023-04-01T07:06:06;0.70;;;0.33;;
7971;SDS011;4031;49.758;6.120;2023-04-01T07:08:41;0.60;;;0.40;;
7971;SDS011;4031;49.758;6.120;2023-04-01T07:11:10;0.60;;;0.60;;
7971;SDS011;4031;49.758;6.120;2023-04-01T07:13:52;0.50;;;0.40;;
7971;SDS011;4031;49.758;6.120;2023-04-01T07:16:39;0.43;;;0.37;;
7971;SDS011;4031;49.758;6.120;2023-04-01T07:28:26;1.70;;;0.40;;
7971;SDS011;4031;49.758;6.120;2023-04-01T07:30:52;1.17;;;0.40;;
7971;SDS011;4031;49.758;6.120;2023-04-01T07:34:04;0.60;;;0.40;;
7971;SDS011;4031;49.758;6.120;2023-04-01T07:36:39;0.60;;;0.30;;
7971;SDS011;4031;49.758;6.120;2023-04-01T07:42:14;1.60;;;0.40;;
7971;SDS011;4031;49.758;6.120;2023-04-01T07:48:25;0.50;;;0.30;;
7971;SDS011;4031;49.758;6.120;2023-04-01T07:51:01;1.03;;;0.40;;
7971;SDS011;4031;49.758;6.120;2023-04-01T07:53:49;0.50;;;0.50;;
7971;SDS011;4031;49.758;6.120;2023-04-01T08:02:35;0.50;;;0.33;;
7971;SDS011;4031;49.758;6.120;2023-04-01T08:10:55;0.50;;;0.40;;
7971;SDS011;4031;49.758;6.120;2023-04-01T08:22:09;0.57;;;0.37;;
7971;SDS011;4031;49.758;6.120;2023-04-01T08:24:44;1.00;;;0.40;;
7971;SDS011;4031;49.758;6.120;2023-04-01T08:32:55;0.50;;;0.30;;
7971;SDS011;4031;49.758;6.120;2023-04-01T08:35:30;2.00;;;0.40;;
7971;SDS011;4031;49.758;6.120;2023-04-01T08:38:08;0.40;;;0.30;;
7971;SDS011;4031;49.758;6.120;2023-04-01T08:44:05;0.50;;;0.40;;
7971;SDS011;4031;49.758;6.120;2023-04-01T08:56:14;0.60;;;0.53;;
7971;SDS011;4031;49.758;6.120;2023-04-01T09:17:28;0.50;;;0.40;;
7971;SDS011;4031;49.758;6.120;2023-04-01T09:27:05;0.70;;;0.40;;
7971;SDS011;4031;49.758;6.120;2023-04-01T10:03:35;0.50;;;0.50;;
7971;SDS011;4031;49.758;6.120;2023-04-01T10:39:34;0.50;;;0.40;;
7971;SDS011;4031;49.758;6.120;2023-04-01T11:03:03;0.50;;;0.40;;
7971;SDS011;4031;49.758;6.120;2023-04-01T11:06:18;0.50;;;0.50;;
7971;SDS011;4031;49.758;6.120;2023-04-01T11:27:54;0.70;;;0.50;;
7971;SDS011;4031;49.758;6.120;2023-04-01T11:43:54;0.50;;;0.40;;
7971;SDS011;4031;49.758;6.120;2023-04-01T11:55:47;0.40;;;0.30;;
7971;SDS011;4031;49.758;6.120;2023-04-01T12:01:19;0.50;;;0.40;;
7971;SDS011;4031;49.758;6.120;2023-04-01T12:10:20;0.57;;;0.40;;
7971;SDS011;4031;49.758;6.120;2023-04-01T12:16:05;0.47;;;0.40;;
7971;SDS011;4031;49.758;6.120;2023-04-01T12:21:49;0.60;;;0.30;;
7971;SDS011;4031;49.758;6.120;2023-04-01T12:24:54;0.77;;;0.30;;
7971;SDS011;4031;49.758;6.120;2023-04-01T12:28:08;0.50;;;0.50;;
7971;SDS011;4031;49.758;6.120;2023-04-01T12:36:12;0.47;;;0.33;;
7971;SDS011;4031;49.758;6.120;2023-04-01T12:39:21;1.10;;;0.40;;
7971;SDS011;4031;49.758;6.120;2023-04-01T12:45:06;0.53;;;0.37;;
7971;SDS011;4031;49.758;6.120;2023-04-01T12:54:02;0.50;;;0.30;;
7971;SDS011;4031;49.758;6.120;2023-04-01T12:57:14;0.53;;;0.40;;
7971;SDS011;4031;49.758;6.120;2023-04-01T13:00:24;0.50;;;0.40;;
7971;SDS011;4031;49.758;6.120;2023-04-01T13:09:00;0.60;;;0.40;;
7971;SDS011;4031;49.758;6.120;2023-04-01T13:12:14;0.50;;;0.30;;
7971;SDS011;4031;49.758;6.120;2023-04-01T13:16:03;0.83;;;0.30;;
7971;SDS011;4031;49.758;6.120;2023-04-01T13:20:54;0.60;;;0.37;;
7971;SDS011;4031;49.758;6.120;2023-04-01T13:35:00;0.40;;;0.40;;
7971;SDS011;4031;49.758;6.120;2023-04-01T13:44:14;0.60;;;0.50;;
7971;SDS011;4031;49.758;6.120;2023-04-01T13:47:01;1.60;;;0.40;;
7971;SDS011;4031;49.758;6.120;2023-04-01T13:49:55;0.50;;;0.40;;
7971;SDS011;4031;49.758;6.120;2023-04-01T13:56:06;0.50;;;0.50;;
7971;SDS011;4031;49.758;6.120;2023-04-01T14:02:03;0.50;;;0.40;;
7971;SDS011;4031;49.758;6.120;2023-04-01T14:05:00;0.60;;;0.50;;
7971;SDS011;4031;49.758;6.120;2023-04-01T14:11:12;0.53;;;0.53;;
7971;SDS011;4031;49.758;6.120;2023-04-01T14:16:39;0.50;;;0.50;;
7971;SDS011;4031;49.758;6.120;2023-04-01T14:27:53;0.50;;;0.40;;
7971;SDS011;4031;49.758;6.120;2023-04-01T14:31:04;0.50;;;0.40;;
7971;SDS011;4031;49.758;6.120;2023-04-01T14:42:41;0.47;;;0.37;;
7971;SDS011;4031;49.758;6.120;2023-04-01T14:48:37;0.50;;;0.40;;
7971;SDS011;4031;49.758;6.120;2023-04-01T14:51:28;0.53;;;0.50;;
7971;SDS011;4031;49.758;6.120;2023-04-01T14:56:49;1.27;;;0.50;;
7971;SDS011;4031;49.758;6.120;2023-04-01T14:59:27;0.47;;;0.30;;
7971;SDS011;4031;49.758;6.120;2023-04-01T15:10:42;0.50;;;0.40;;
7971;SDS011;4031;49.758;6.120;2023-04-01T15:13:54;0.60;;;0.47;;
7971;SDS011;4031;49.758;6.120;2023-04-01T15:28:49;0.50;;;0.40;;
7971;SDS011;4031;49.758;6.120;2023-04-01T15:31:53;0.50;;;0.50;;
7971;SDS011;4031;49.758;6.120;2023-04-01T15:34:57;0.70;;;0.43;;
7971;SDS011;4031;49.758;6.120;2023-04-01T15:40:47;0.50;;;0.40;;
7971;SDS011;4031;49.758;6.120;2023-04-01T15:43:27;1.43;;;0.40;;
7971;SDS011;4031;49.758;6.120;2023-04-01T15:46:30;1.03;;;0.40;;
7971;SDS011;4031;49.758;6.120;2023-04-01T16:00:46;1.70;;;0.60;;
7971;SDS011;4031;49.758;6.120;2023-04-01T16:03:37;1.07;;;0.50;;
7971;SDS011;4031;49.758;6.120;2023-04-01T16:14:59;0.77;;;0.50;;
7971;SDS011;4031;49.758;6.120;2023-04-01T16:18:01;0.73;;;0.73;;
7971;SDS011;4031;49.758;6.120;2023-04-01T16:20:55;0.70;;;0.53;;
7971;SDS011;4031;49.758;6.120;2023-04-01T16:28:59;0.80;;;0.60;;
7971;SDS011;4031;49.758;6.120;2023-04-01T16:32:00;0.50;;;0.50;;
7971;SDS011;4031;49.758;6.120;2023-04-01T16:37:21;0.70;;;0.60;;
7971;SDS011;4031;49.758;6.120;2023-04-01T16:45:54;0.80;;;0.80;;
7971;SDS011;4031;49.758;6.120;2023-04-01T16:48:50;0.70;;;0.70;;
7971;SDS011;4031;49.758;6.120;2023-04-01T16:51:46;0.50;;;0.50;;
7971;SDS011;4031;49.758;6.120;2023-04-01T16:57:22;0.60;;;0.43;;
7971;SDS011;4031;49.758;6.120;2023-04-01T17:00:17;0.57;;;0.50;;
7971;SDS011;4031;49.758;6.120;2023-04-01T17:20:55;1.30;;;0.70;;
7971;SDS011;4031;49.758;6.120;2023-04-01T17:26:28;0.90;;;0.53;;
7971;SDS011;4031;49.758;6.120;2023-04-01T17:37:37;0.80;;;0.60;;
7971;SDS011;4031;49.758;6.120;2023-04-01T17:46:22;0.70;;;0.70;;
7971;SDS011;4031;49.758;6.120;2023-04-01T17:52:21;0.83;;;0.60;;
7971;SDS011;4031;49.758;6.120;2023-04-01T17:58:08;2.37;;;0.90;;
7971;SDS011;4031;49.758;6.120;2023-04-01T18:09:31;2.20;;;1.10;;
7971;SDS011;4031;49.758;6.120;2023-04-01T18:18:50;1.93;;;1.23;;
7971;SDS011;4031;49.758;6.120;2023-04-01T18:21:33;1.67;;;0.93;;
7971;SDS011;4031;49.758;6.120;2023-04-01T18:24:22;1.50;;;1.40;;
7971;SDS011;4031;49.758;6.120;2023-04-01T18:27:17;1.30;;;1.10;;
7971;SDS011;4031;49.758;6.120;2023-04-01T18:29:50;2.90;;;1.70;;
7971;SDS011;4031;49.758;6.120;2023-04-01T18:46:52;2.90;;;2.10;;
7971;SDS011;4031;49.758;6.120;2023-04-01T18:50:13;1.90;;;1.80;;
7971;SDS011;4031;49.758;6.120;2023-04-01T18:52:41;1.57;;;1.40;;
7971;SDS011;4031;49.758;6.120;2023-04-01T18:55:20;2.37;;;1.50;;
7971;SDS011;4031;49.758;6.120;2023-04-01T18:58:19;2.50;;;1.53;;
7971;SDS011;4031;49.758;6.120;2023-04-01T19:01:15;2.00;;;1.80;;
7971;SDS011;4031;49.758;6.120;2023-04-01T19:04:16;4.03;;;2.33;;
7971;SDS011;4031;49.758;6.120;2023-04-01T19:07:33;1.70;;;1.60;;
7971;SDS011;4031;49.758;6.120;2023-04-01T19:16:04;1.43;;;1.33;;
7971;SDS011;4031;49.758;6.120;2023-04-01T19:30:27;3.20;;;2.23;;
7971;SDS011;4031;49.758;6.120;2023-04-01T19:42:17;2.30;;;2.10;;
7971;SDS011;4031;49.758;6.120;2023-04-01T19:48:18;5.00;;;3.37;;
7971;SDS011;4031;49.758;6.120;2023-04-01T19:54:01;4.90;;;3.27;;
7971;SDS011;4031;49.758;6.120;2023-04-01T20:00:11;6.17;;;3.60;;
7971;SDS011;4031;49.758;6.120;2023-04-01T20:05:28;3.23;;;2.30;;
7971;SDS011;4031;49.758;6.120;2023-04-01T20:14:04;5.63;;;3.13;;
7971;SDS011;4031;49.758;6.120;2023-04-01T20:17:07;4.33;;;2.90;;
7971;SDS011;4031;49.758;6.120;2023-04-01T20:22:48;2.23;;;2.03;;
7971;SDS011;4031;49.758;6.120;2023-04-01T20:25:32;2.53;;;2.17;;
7971;SDS011;4031;49.758;6.120;2023-04-01T20:28:21;2.57;;;1.80;;
7971;SDS011;4031;49.758;6.120;2023-04-01T20:58:45;1.63;;;1.40;;
7971;SDS011;4031;49.758;6.120;2023-04-01T21:01:44;1.60;;;1.50;;
7971;SDS011;4031;49.758;6.120;2023-04-01T21:17:13;2.30;;;2.07;;
7971;SDS011;4031;49.758;6.120;2023-04-01T21:31:58;2.63;;;2.10;;
7971;SDS011;4031;49.758;6.120;2023-04-01T21:50:19;2.50;;;2.30;;
7971;SDS011;4031;49.758;6.120;2023-04-01T21:59:53;3.13;;;2.93;;
7971;SDS011;4031;49.758;6.120;2023-04-01T22:05:30;3.17;;;2.93;;
7971;SDS011;4031;49.758;6.120;2023-04-01T22:15:12;4.50;;;3.43;;
7971;SDS011;4031;49.758;6.120;2023-04-01T22:17:51;3.30;;;2.83;;
7971;SDS011;4031;49.758;6.120;2023-04-01T22:25:57;3.50;;;2.70;;
7971;SDS011;4031;49.758;6.120;2023-04-01T22:28:38;4.73;;;3.33;;
7971;SDS011;4031;49.758;6.120;2023-04-01T22:31:27;3.87;;;3.07;;
7971;SDS011;4031;49.758;6.120;2023-04-01T22:37:18;4.50;;;2.90;;
7971;SDS011;4031;49.758;6.120;2023-04-01T22:40:02;3.00;;;2.70;;
7971;SDS011;4031;49.758;6.120;2023-04-01T22:42:44;3.77;;;2.80;;
7971;SDS011;4031;49.758;6.120;2023-04-01T22:51:03;3.77;;;3.03;;
7971;SDS011;4031;49.758;6.120;2023-04-01T22:53:45;3.20;;;2.90;;
7971;SDS011;4031;49.758;6.120;2023-04-01T22:56:33;4.53;;;3.27;;
7971;SDS011;4031;49.758;6.120;2023-04-01T23:02:15;3.17;;;2.87;;
7971;SDS011;4031;49.758;6.120;2023-04-01T23:05:16;3.83;;;3.23;;
7971;SDS011;4031;49.758;6.120;2023-04-01T23:11:05;3.90;;;2.90;;
7971;SDS011;4031;49.758;6.120;2023-04-01T23:13:39;3.20;;;2.77;;
7971;SDS011;4031;49.758;6.120;2023-04-01T23:16:13;3.00;;;2.30;;
7971;SDS011;4031;49.758;6.120;2023-04-01T23:24:25;3.13;;;2.40;;
7971;SDS011;4031;49.758;6.120;2023-04-01T23:26:59;2.10;;;1.83;;
7971;SDS011;4031;49.758;6.120;2023-04-01T23:29:34;1.77;;;1.67;;
7971;SDS011;4031;49.758;6.120;2023-04-01T23:32:04;2.83;;;2.00;;
7971;SDS011;4031;49.758;6.120;2023-04-01T23:34:38;2.33;;;1.93;;
7971;SDS011;4031;49.758;6.120;2023-04-01T23:37:07;1.40;;;1.30;;
7971;SDS011;4031;49.758;6.120;2023-04-01T23:39:42;1.97;;;1.77;;
7971;SDS011;4031;49.758;6.120;2023-04-01T23:42:15;1.90;;;1.63;;
7971;SDS011;4031;49.758;6.120;2023-04-01T23:44:48;2.33;;;1.90;;
7971;SDS011;4031;49.758;6.120;2023-04-01T23:47:17;2.07;;;1.80;;
7971;SDS011;4031;49.758;6.120;2023-04-01T23:49:48;2.13;;;1.90;;
7971;SDS011;4031;49.758;6.120;2023-04-01T23:52:36;2.80;;;2.20;;
7971;SDS011;4031;49.758;6.120;2023-04-01T23:57:40;2.00;;;1.80;;
